Latest Weather Observations for Samuel Hill

IDQ60801

Issued at 8:32 am EST Sunday 31 July 2016 (issued every 30 minutes, with the page automatically refreshed every 10 minutes)

About weather observations | Map of weather stations | Latest weather observations for QLD | Other Formats
Station Details ID: 033308 Name: SAMUEL HILL AERO Lat: -22.74 Lon: 150.66 Height: 31.0 m
Data from the previous 72 hours. | See also: Recent months at Samuel Hill
Date/Time
EST
Temp
°C
App
Temp
°C
Dew
Point
°C
Rel
Hum
%
Delta-T
°C
Wind Press
QNH
hPa
Press
MSL
hPa
Rain since
9am
mm
Dir  Spd
km/h
Gust
km/h
Spd
kts
Gust
kts
31/08:30am 15.9 15.9 13.7 87 1.2 SSE 6 9 3 5 1019.8 1019.8 0.0
31/08:00am 14.6 14.4 13.1 91 0.8 SSE 6 7 3 4 1019.5 1019.5 0.0
31/07:47am 13.6 14.4 12.7 94 0.5 CALM 0 0 0 0 1019.4 1019.4 0.0
31/07:30am 12.5 12.7 11.9 96 0.3 SSW 2 7 1 4 1019.2 1019.2 0.0
31/07:05am 9.9 8.6 9.1 95 0.4 SW 6 9 3 5 1019.0 1019.0 0.0
31/07:00am 9.4 7.8 8.6 95 0.4 SW 7 9 4 5 1019.0 1019.0 0.0
31/06:51am 8.7 6.9 7.9 95 0.4 SW 7 9 4 5 1018.8 1018.8 0.0
31/06:30am 8.3 7.3 7.5 95 0.4 SW 2 7 1 4 1018.7 1018.7 0.0
31/06:00am 8.3 6.4 7.4 94 0.4 SW 7 9 4 5 1018.4 1018.4 0.0
31/05:30am 8.8 7.6 8.0 95 0.4 SW 4 11 2 6 1018.0 1018.0 0.0
31/05:00am 8.7 6.5 7.9 95 0.4 SW 9 9 5 5 1017.9 1017.9 0.0
31/04:30am 8.7 8.2 7.8 94 0.4 CALM 0 0 0 0 1017.8 1017.8 0.0
31/04:00am 9.0 8.6 8.1 94 0.4 CALM 0 0 0 0 1018.0 1018.0 0.0
31/03:30am 9.1 7.6 8.3 95 0.4 SW 6 9 3 5 1018.1 1018.1 0.0
31/03:00am 9.4 7.9 8.6 95 0.4 SW 6 6 3 3 1018.2 1018.2 0.0
31/02:30am 9.3 9.0 8.5 95 0.4 CALM 0 0 0 0 1018.3 1018.3 0.0
31/02:00am 9.2 8.8 8.3 94 0.4 CALM 0 0 0 0 1018.6 1018.6 0.0
31/01:30am 9.3 8.9 8.4 94 0.4 CALM 0 0 0 0 1018.8 1018.8 0.0
31/01:00am 9.4 9.1 8.5 94 0.4 CALM 0 0 0 0 1019.0 1019.0 0.0
31/12:30am 9.4 9.0 8.3 93 0.5 CALM 0 0 0 0 1019.3 1019.3 0.0
31/12:00am 9.7 9.4 8.6 93 0.5 CALM 0 0 0 0 1019.4 1019.4 0.0
 
Date/Time
EST
Temp
°C
App
Temp
°C
Dew
Point
°C
Rel
Hum
%
Delta-T
°C
Wind Press
QNH
hPa
Press
MSL
hPa
Rain since
9am
mm
Dir  Spd
km/h
Gust
km/h
Spd
kts
Gust
kts
30/11:30pm 10.0 8.6 8.9 93 0.5 SW 6 7 3 4 1019.4 1019.4 0.0
30/11:00pm 10.1 9.9 9.0 93 0.5 CALM 0 0 0 0 1019.5 1019.5 0.0
30/10:30pm 10.5 10.4 9.4 93 0.5 CALM 0 0 0 0 1019.7 1019.7 0.0
30/10:00pm 10.3 10.1 9.1 92 0.6 CALM 0 0 0 0 1019.6 1019.6 0.0
30/09:30pm 10.8 10.7 9.4 91 0.7 CALM 0 0 0 0 1019.6 1019.6 0.0
30/09:00pm 11.4 11.5 10.1 92 0.7 CALM 0 0 0 0 1019.5 1019.5 0.0
30/08:30pm 11.9 11.0 10.5 91 0.7 WSW 6 7 3 4 1019.5 1019.5 0.0
30/08:00pm 12.5 11.7 10.9 90 0.8 WSW 6 9 3 5 1019.3 1019.3 0.0
30/07:30pm 13.1 13.5 11.2 88 1.0 CALM 0 4 0 2 1019.1 1019.1 0.0
30/07:00pm 13.4 13.6 10.4 82 1.6 CALM 0 0 0 0 1018.9 1018.9 0.0
30/06:30pm 15.2 15.6 11.2 77 2.1 CALM 0 0 0 0 1018.7 1018.7 0.0
30/06:00pm 17.2 16.2 11.0 67 3.3 SE 7 7 4 4 1018.4 1018.4 0.0
30/05:30pm 18.9 17.8 10.7 59 4.4 SE 7 9 4 5 1018.1 1018.1 0.0
30/05:00pm 20.2 17.8 10.0 52 5.5 ESE 13 19 7 10 1017.8 1017.8 0.0
30/04:30pm 21.3 18.6 8.9 45 6.6 SE 13 20 7 11 1017.7 1017.7 0.0
30/04:00pm 21.9 18.7 8.4 42 7.1 SE 15 22 8 12 1017.5 1017.5 0.0
30/03:30pm 22.3 19.1 8.4 41 7.3 ESE 15 20 8 11 1017.4 1017.4 0.0
30/03:00pm 22.8 19.5 9.6 43 7.1 ESE 17 28 9 15 1017.4 1017.4 0.0
30/02:30pm 22.9 19.6 9.7 43 7.2 ESE 17 24 9 13 1017.3 1017.3 0.0
30/02:00pm 23.5 21.4 11.2 46 6.9 SE 13 20 7 11 1017.4 1017.4 0.0
30/01:30pm 22.7 19.5 9.8 44 7.0 ESE 17 30 9 16 1017.8 1017.8 0.0
30/01:00pm 23.3 20.7 10.7 45 7.0 ESE 15 22 8 12 1017.9 1017.9 0.0
30/12:30pm 22.8 20.1 10.3 45 6.9 SE 15 24 8 13 1018.4 1018.4 0.0
30/12:00pm 22.6 19.4 10.1 45 6.8 SE 17 22 9 12 1019.1 1019.1 0.0
30/11:30am 22.3 19.3 10.8 48 6.3 SE 17 28 9 15 1019.7 1019.7 0.0
30/11:00am 22.6 19.7 11.0 48 6.4 SSE 17 24 9 13 1020.0 1020.0 0.0
30/10:30am 21.8 19.7 12.4 55 5.3 SSE 15 24 8 13 1020.2 1020.2 0.0
30/10:00am 21.1 19.6 13.0 60 4.6 SSE 13 19 7 10 1020.4 1020.4 0.0
30/09:30am 19.3 18.3 13.3 68 3.4 SSE 11 17 6 9 1020.7 1020.7 0.0
30/09:00am 18.2 17.3 13.7 75 2.6 SSE 11 17 6 9 1020.6 1020.6 0.0
30/08:30am 15.4 15.1 13.2 87 1.2 SSE 7 11 4 6 1020.4 1020.4 0.0
30/08:00am 14.0 13.7 12.7 92 0.7 SW 6 7 3 4 1020.2 1020.2 0.0
30/07:30am 11.8 11.8 11.0 95 0.4 WNW 2 9 1 5 1020.1 1020.1 0.0
30/07:00am 9.3 9.0 8.5 95 0.4 CALM 0 0 0 0 1019.8 1019.8 0.0
30/06:30am 8.5 8.0 7.7 95 0.4 CALM 0 0 0 0 1019.5 1019.5 0.0
30/06:00am 8.9 7.1 8.1 95 0.4 WSW 7 9 4 5 1019.2 1019.2 0.0
30/05:30am 9.2 7.7 8.4 95 0.4 SW 6 7 3 4 1019.0 1019.0 0.0
30/05:00am 9.2 7.7 8.4 95 0.4 WSW 6 7 3 4 1018.8 1018.8 0.0
30/04:30am 9.0 7.4 8.1 94 0.4 SSW 6 7 3 4 1018.7 1018.7 0.0
30/04:00am 9.6 7.7 9.0 96 0.3 SW 9 9 5 5 1018.7 1018.7 0.0
30/03:32am 9.3 7.3 8.5 95 0.4 SSW 9 9 5 5 1018.7 1018.7 0.0
30/03:30am 9.3 7.3 8.5 95 0.4 SW 9 9 5 5 1018.7 1018.7 0.0
30/03:20am 9.4 7.8 8.6 95 0.4 SW 7 9 4 5 1018.8 1018.8 0.0
30/03:00am 9.1 7.4 8.2 94 0.4 SW 7 9 4 5 1018.9 1018.9 0.0
30/02:30am 9.2 8.8 8.1 93 0.5 CALM 0 0 0 0 1019.0 1019.0 0.0
30/02:00am 10.0 8.5 9.2 95 0.4 SW 7 9 4 5 1019.2 1019.2 0.0
30/01:30am 10.1 9.2 9.3 95 0.4 SW 4 7 2 4 1019.6 1019.6 0.0
30/01:05am 9.6 9.3 8.5 93 0.5 CALM 0 0 0 0 1019.9 1019.9 0.0
30/01:00am 9.7 9.4 8.6 93 0.5 CALM 0 6 0 3 1019.9 1019.9 0.0
30/12:41am 10.6 9.2 9.7 94 0.5 W 7 9 4 5 1020.1 1020.1 0.0
30/12:30am 10.3 10.2 9.4 94 0.4 CALM 0 6 0 3 1020.2 1020.2 0.0
30/12:00am 10.3 10.1 9.2 93 0.5 CALM 0 0 0 0 1020.3 1020.3 0.0
 
Date/Time
EST
Temp
°C
App
Temp
°C
Dew
Point
°C
Rel
Hum
%
Delta-T
°C
Wind Press
QNH
hPa
Press
MSL
hPa
Rain since
9am
mm
Dir  Spd
km/h
Gust
km/h
Spd
kts
Gust
kts
29/11:30pm 10.3 10.1 9.1 92 0.6 CALM 0 0 0 0 1020.4 1020.4 0.0
29/11:00pm 10.9 10.9 9.8 93 0.6 CALM 0 0 0 0 1020.5 1020.5 0.0
29/10:30pm 11.0 10.9 9.6 91 0.7 CALM 0 0 0 0 1020.7 1020.7 0.0
29/10:00pm 11.7 11.9 10.6 93 0.6 CALM 0 0 0 0 1020.8 1020.8 0.0
29/09:30pm 12.2 11.4 11.1 93 0.6 W 6 7 3 4 1020.6 1020.6 0.0
29/09:00pm 12.1 12.3 10.7 91 0.7 CALM 0 0 0 0 1020.5 1020.5 0.0
29/08:30pm 12.7 13.1 11.4 92 0.7 CALM 0 0 0 0 1020.5 1020.5 0.0
29/08:00pm 13.0 13.4 11.2 89 0.9 CALM 0 0 0 0 1020.5 1020.5 0.0
29/07:30pm 13.8 14.5 12.2 90 0.9 CALM 0 0 0 0 1020.2 1020.2 0.0
29/07:00pm 14.6 14.9 12.1 85 1.4 S 2 6 1 3 1020.0 1020.0 0.0
29/06:30pm 16.6 16.2 13.1 80 2.0 S 7 9 4 5 1019.7 1019.7 0.0
29/06:00pm 18.1 17.8 13.4 74 2.7 S 7 11 4 6 1019.6 1019.6 0.0
29/05:30pm 18.9 18.3 13.5 71 3.1 SE 9 15 5 8 1019.5 1019.5 0.0
29/05:00pm 20.0 18.2 13.2 65 3.9 SE 15 20 8 11 1019.2 1019.2 0.0
29/04:30pm 20.8 19.0 12.0 57 4.9 SE 13 20 7 11 1019.0 1019.0 0.0
29/04:00pm 21.4 19.1 11.7 54 5.4 SSE 15 22 8 12 1018.9 1018.9 0.0
29/03:30pm 21.9 20.0 13.0 57 5.1 ESE 15 20 8 11 1019.0 1019.0 0.0
29/03:00pm 22.1 19.1 12.1 53 5.6 ESE 19 26 10 14 1018.9 1018.9 0.0
29/02:30pm 22.5 21.0 13.0 55 5.5 SE 13 22 7 12 1018.9 1018.9 0.0
29/02:00pm 22.7 20.7 14.0 58 5.1 ESE 17 28 9 15 1019.1 1019.1 0.0
29/01:30pm 22.8 21.0 14.4 59 4.9 SE 17 26 9 14 1019.2 1019.2 0.0
29/01:00pm 21.9 19.1 12.5 55 5.3 SE 19 28 10 15 1019.5 1019.5 0.0
29/12:30pm 21.9 18.9 12.7 56 5.2 SE 20 30 11 16 1020.0 1020.0 0.0
29/12:00pm 22.2 19.8 12.7 55 5.4 SE 17 28 9 15 1020.5 1020.5 0.0
29/11:30am 21.2 18.0 11.8 55 5.3 SSE 20 33 11 18 1021.1 1021.1 0.0
29/11:00am 21.1 17.5 12.0 56 5.1 SE 22 32 12 17 1021.7 1021.7 0.0
29/10:30am 20.3 17.0 11.0 55 5.1 SSE 19 26 10 14 1021.9 1021.9 0.0
29/10:00am 19.3 15.7 9.8 54 5.0 SSE 19 26 10 14 1022.2 1022.2 0.0
29/09:30am 19.1 15.8 9.6 54 5.0 S 17 24 9 13 1022.3 1022.3 0.0
29/09:00am 18.4 15.1 9.7 57 4.6 SSE 17 26 9 14 1022.4 1022.4 0.0
29/08:30am 16.5 14.1 10.1 66 3.4 SSE 13 20 7 11 1022.3 1022.3 0.0
29/08:00am 14.6 12.9 9.8 73 2.5 SSE 9 19 5 10 1022.2 1022.2 0.0
29/07:30am 12.0 11.9 9.4 84 1.3 CALM 0 0 0 0 1021.9 1021.9 0.0
29/07:00am 9.9 8.4 8.3 90 0.8 S 6 11 3 6 1021.7 1021.7 0.0
29/06:30am 10.5 8.4 8.3 86 1.1 S 9 13 5 7 1021.2 1021.2 0.0
29/06:00am 9.4 7.7 8.5 94 0.4 S 7 9 4 5 1020.9 1020.9 0.0
29/05:30am 8.6 6.9 7.7 94 0.4 SSW 6 7 3 4 1020.7 1020.7 0.0
29/05:00am 8.4 6.7 7.5 94 0.4 SSW 6 7 3 4 1020.5 1020.5 0.0
29/04:30am 8.5 6.8 7.4 93 0.5 SW 6 7 3 4 1020.2 1020.2 0.0
29/04:00am 8.8 6.6 7.9 94 0.4 WSW 9 9 5 5 1020.2 1020.2 0.0
29/03:30am 8.7 8.2 7.8 94 0.4 CALM 0 0 0 0 1020.2 1020.2 0.0
29/03:00am 8.7 8.2 7.8 94 0.4 CALM 0 0 0 0 1020.4 1020.4 0.0
29/02:30am 8.6 8.1 7.7 94 0.4 CALM 0 0 0 0 1020.5 1020.5 0.0
29/02:00am 8.6 6.9 7.7 94 0.4 SW 6 9 3 5 1020.6 1020.6 0.0
29/01:30am 8.6 7.7 7.7 94 0.4 SW 2 6 1 3 1020.9 1020.9 0.0
29/01:00am 8.5 8.0 7.7 95 0.4 CALM 0 0 0 0 1021.2 1021.2 0.0
29/12:30am 8.1 7.5 7.2 94 0.4 CALM 0 0 0 0 1021.5 1021.5 0.0
29/12:00am 8.0 7.3 6.9 93 0.5 CALM 0 0 0 0 1021.8 1021.8 0.0
 
Date/Time
EST
Temp
°C
App
Temp
°C
Dew
Point
°C
Rel
Hum
%
Delta-T
°C
Wind Press
QNH
hPa
Press
MSL
hPa
Rain since
9am
mm
Dir  Spd
km/h
Gust
km/h
Spd
kts
Gust
kts
28/11:30pm 8.4 7.8 7.3 93 0.5 CALM 0 0 0 0 1021.9 1021.9 0.0
28/11:00pm 8.8 7.5 7.6 92 0.6 S 4 7 2 4 1021.9 1021.9 0.0
28/10:30pm 9.2 8.8 8.1 93 0.5 CALM 0 0 0 0 1022.1 1022.1 0.0
28/10:00pm 9.5 8.0 8.3 92 0.6 S 6 7 3 4 1022.3 1022.3 0.0
28/09:30pm 9.7 8.2 8.5 92 0.6 S 6 9 3 5 1022.5 1022.5 0.0
28/09:00pm 9.8 9.5 8.6 92 0.6 CALM 0 0 0 0 1022.5 1022.5 0.0
28/08:30pm 10.1 9.8 8.5 90 0.8 CALM 0 0 0 0 1022.4 1022.4 0.0
28/08:00pm 10.8 9.2 8.9 88 0.9 SSW 7 9 4 5 1022.3 1022.3 0.0
28/07:30pm 11.5 10.1 9.4 87 1.1 SSE 7 9 4 5 1022.2 1022.2 0.0
28/07:00pm 11.7 10.8 9.4 86 1.2 SSW 4 6 2 3 1022.1 1022.1 0.0
28/06:30pm 12.5 10.9 8.8 78 1.9 S 7 7 4 4 1021.9 1021.9 0.0
28/06:00pm 14.7 13.3 8.9 68 2.9 S 6 7 3 4 1021.7 1021.7 0.0
28/05:30pm 16.5 14.7 8.0 57 4.3 SE 7 9 4 5 1021.4 1021.4 0.0
28/05:00pm 18.0 14.9 7.1 49 5.5 SE 13 19 7 10 1021.0 1021.0 0.0
28/04:30pm 19.1 15.9 6.9 45 6.1 SE 13 19 7 10 1020.6 1020.6 0.0
28/04:00pm 19.7 16.1 6.8 43 6.5 SE 15 24 8 13 1020.3 1020.3 0.0
28/03:30pm 20.0 15.7 7.1 43 6.6 ESE 19 28 10 15 1020.2 1020.2 0.0
28/03:00pm 20.3 16.5 5.9 39 7.1 SE 15 22 8 12 1020.2 1020.2 0.0
28/02:30pm 20.3 16.2 6.3 40 7.0 SE 17 28 9 15 1020.3 1020.3 0.0
28/02:00pm 20.2 16.2 6.5 41 6.9 SSE 17 24 9 13 1020.8 1020.8 0.0
28/01:30pm 19.8 15.2 6.5 42 6.7 SE 20 28 11 15 1021.0 1021.0 0.0
28/01:00pm 20.2 15.9 6.9 42 6.7 ESE 19 30 10 16 1021.3 1021.3 0.0
28/12:30pm 19.5 14.5 6.6 43 6.5 SSE 22 33 12 18 1021.8 1021.8 0.0
28/12:00pm 19.5 14.8 5.9 41 6.7 SE 20 33 11 18 1022.0 1022.0 0.0
28/11:30am 19.3 14.4 5.0 39 6.9 SE 20 32 11 17 1022.5 1022.5 0.0
28/11:00am 19.6 14.6 6.4 42 6.6 SE 22 32 12 17 1022.9 1022.9 0.0
28/10:30am 19.6 15.0 6.7 43 6.5 SE 20 32 11 17 1023.1 1023.1 0.0
28/10:00am 19.2 14.6 6.3 43 6.4 SSE 20 32 11 17 1023.3 1023.3 0.0
28/09:30am 18.6 14.5 7.7 49 5.6 SSE 19 32 10 17 1023.4 1023.4 0.0
28/09:00am 17.8 14.1 8.1 53 4.9 SSE 17 26 9 14 1023.3 1023.3 0.0

Other Formats:

Comma delimited format used in spreadsheet applications
http://www.bom.gov.au/fwo/IDQ60801/IDQ60801.94370.axf

JavaScript Object Notation format (JSON) in row-major order
http://www.bom.gov.au/fwo/IDQ60801/IDQ60801.94370.json